Terminal Aerodrome Forecast
Issued by NWS

Home | Current Version | Previous Version | Text Only | Print | Product List | Glossary On
Versions: 1 2 3 4 5 6 7 8 9 10 11 12 13 14 15 16 17 18 19 20 21 22 23 24
766
FTUS43 KBIS 060133 AAA
TAFMOT
TAF AMD
KMOT 060133Z 0602/0624 30021KT 1SM -SN BR OVC012
     FM060300 31025G35KT 1SM -SN BLSN OVC008
     FM061600 29027G38KT 1/2SM SN BLSN OVC003
     FM062200 28022G32KT 2SM -SN BLSN OVC020=

USA.gov is the U.S. government's official web portal to all federal, state and local government web resources and services.